<?xml version="1.0" encoding="UTF-8" standalone="no" ?>
<gpx xmlns="http://www.topografix.com/GPX/1/1" xmlns:xsi="http://www.w3.org/2001/XMLSchema-instance" xsi:schemaLocation="http://www.topografix.com/GPX/1/1 http://www.topografix.com/GPX/1/1/gpx.xsd" version="1.1" creator="VisuGPX - https://www.visugpx.com">
  <metadata>
    <name>lundi 2016 01 11</name>
    <desc><![CDATA[rando du lundi]]></desc>
  </metadata>
  <trk>
    <name><![CDATA[Lundi 2016 01 11]]></name>
    <trkseg>
      <trkpt lat="48.85727" lon="2.34717">
        <ele>40.599998474121</ele>
        <time>2016-01-11T19:20:31.000Z</time>
      </trkpt>
      <trkpt lat="48.85727" lon="2.34723">
        <ele>40.599998474121</ele>
        <time>2016-01-11T19:20:32.000Z</time>
      </trkpt>
      <trkpt lat="48.85728" lon="2.34716">
        <ele>40.599998474121</ele>
        <time>2016-01-11T19:20:36.000Z</time>
      </trkpt>
      <trkpt lat="48.8572" lon="2.34705">
        <ele>40.599998474121</ele>
        <time>2016-01-11T19:20:42.000Z</time>
      </trkpt>
      <trkpt lat="48.85702" lon="2.34691">
        <ele>40.799999237061</ele>
        <time>2016-01-11T19:20:50.000Z</time>
      </trkpt>
      <trkpt lat="48.85685" lon="2.34679">
        <ele>41.400001525879</ele>
        <time>2016-01-11T19:20:57.000Z</time>
      </trkpt>
      <trkpt lat="48.85668" lon="2.34666">
        <ele>42.799999237061</ele>
        <time>2016-01-11T19:21:04.000Z</time>
      </trkpt>
      <trkpt lat="48.85649" lon="2.34653">
        <ele>44.400001525879</ele>
        <time>2016-01-11T19:21:10.000Z</time>
      </trkpt>
      <trkpt lat="48.85632" lon="2.34644">
        <ele>45.799999237061</ele>
        <time>2016-01-11T19:21:15.000Z</time>
      </trkpt>
      <trkpt lat="48.85611" lon="2.34636">
        <ele>47.599998474121</ele>
        <time>2016-01-11T19:21:21.000Z</time>
      </trkpt>
      <trkpt lat="48.85592" lon="2.34628">
        <ele>47.799999237061</ele>
        <time>2016-01-11T19:21:25.000Z</time>
      </trkpt>
      <trkpt lat="48.85575" lon="2.34619">
        <ele>47.599998474121</ele>
        <time>2016-01-11T19:21:29.000Z</time>
      </trkpt>
      <trkpt lat="48.85555" lon="2.3461">
        <ele>47.400001525879</ele>
        <time>2016-01-11T19:21:34.000Z</time>
      </trkpt>
      <trkpt lat="48.85535" lon="2.34597">
        <ele>47</ele>
        <time>2016-01-11T19:21:39.000Z</time>
      </trkpt>
      <trkpt lat="48.85515" lon="2.3458">
        <ele>46.400001525879</ele>
        <time>2016-01-11T19:21:43.000Z</time>
      </trkpt>
      <trkpt lat="48.85497" lon="2.34563">
        <ele>45.200000762939</ele>
        <time>2016-01-11T19:21:47.000Z</time>
      </trkpt>
      <trkpt lat="48.85479" lon="2.34546">
        <ele>43.799999237061</ele>
        <time>2016-01-11T19:21:51.000Z</time>
      </trkpt>
      <trkpt lat="48.8546" lon="2.34529">
        <ele>42.599998474121</ele>
        <time>2016-01-11T19:21:55.000Z</time>
      </trkpt>
      <trkpt lat="48.85443" lon="2.34515">
        <ele>41.200000762939</ele>
        <time>2016-01-11T19:21:59.000Z</time>
      </trkpt>
      <trkpt lat="48.85435" lon="2.34503">
        <ele>41.200000762939</ele>
        <time>2016-01-11T19:22:01.000Z</time>
      </trkpt>
      <trkpt lat="48.85421" lon="2.3448">
        <ele>41.599998474121</ele>
        <time>2016-01-11T19:22:05.000Z</time>
      </trkpt>
      <trkpt lat="48.85418" lon="2.34475">
        <ele>41.799999237061</ele>
        <time>2016-01-11T19:22:06.000Z</time>
      </trkpt>
      <trkpt lat="48.85403" lon="2.34456">
        <ele>42.200000762939</ele>
        <time>2016-01-11T19:22:11.000Z</time>
      </trkpt>
      <trkpt lat="48.85398" lon="2.34451">
        <ele>42.200000762939</ele>
        <time>2016-01-11T19:22:13.000Z</time>
      </trkpt>
      <trkpt lat="48.85386" lon="2.34437">
        <ele>42.599998474121</ele>
        <time>2016-01-11T19:22:22.000Z</time>
      </trkpt>
      <trkpt lat="48.85385" lon="2.34413">
        <ele>42</ele>
        <time>2016-01-11T19:22:49.000Z</time>
      </trkpt>
      <trkpt lat="48.85397" lon="2.34386">
        <ele>42</ele>
        <time>2016-01-11T19:22:55.000Z</time>
      </trkpt>
      <trkpt lat="48.85411" lon="2.34361">
        <ele>41.599998474121</ele>
        <time>2016-01-11T19:22:59.000Z</time>
      </trkpt>
      <trkpt lat="48.85425" lon="2.34332">
        <ele>41.200000762939</ele>
        <time>2016-01-11T19:23:03.000Z</time>
      </trkpt>
      <trkpt lat="48.85431" lon="2.34317">
        <ele>40.799999237061</ele>
        <time>2016-01-11T19:23:05.000Z</time>
      </trkpt>
      <trkpt lat="48.85444" lon="2.34296">
        <ele>41.200000762939</ele>
        <time>2016-01-11T19:23:08.000Z</time>
      </trkpt>
      <trkpt lat="48.85458" lon="2.34267">
        <ele>42</ele>
        <time>2016-01-11T19:23:12.000Z</time>
      </trkpt>
      <trkpt lat="48.85465" lon="2.34253">
        <ele>41.799999237061</ele>
        <time>2016-01-11T19:23:14.000Z</time>
      </trkpt>
      <trkpt lat="48.85477" lon="2.34232">
        <ele>41.799999237061</ele>
        <time>2016-01-11T19:23:17.000Z</time>
      </trkpt>
      <trkpt lat="48.85482" lon="2.34225">
        <ele>41.799999237061</ele>
        <time>2016-01-11T19:23:18.000Z</time>
      </trkpt>
      <trkpt lat="48.85498" lon="2.34199">
        <ele>41</ele>
        <time>2016-01-11T19:23:22.000Z</time>
      </trkpt>
      <trkpt lat="48.85513" lon="2.34173">
        <ele>39.799999237061</ele>
        <time>2016-01-11T19:23:26.000Z</time>
      </trkpt>
      <trkpt lat="48.85518" lon="2.34165">
        <ele>39.400001525879</ele>
        <time>2016-01-11T19:23:28.000Z</time>
      </trkpt>
      <trkpt lat="48.85508" lon="2.34145">
        <ele>40.799999237061</ele>
        <time>2016-01-11T19:23:33.000Z</time>
      </trkpt>
      <trkpt lat="48.85506" lon="2.3414">
        <ele>41.200000762939</ele>
        <time>2016-01-11T19:23:34.000Z</time>
      </trkpt>
      <trkpt lat="48.85501" lon="2.34133">
        <ele>42</ele>
        <time>2016-01-11T19:23:36.000Z</time>
      </trkpt>
      <trkpt lat="48.85482" lon="2.34122">
        <ele>43.400001525879</ele>
        <time>2016-01-11T19:23:41.000Z</time>
      </trkpt>
      <trkpt lat="48.85462" lon="2.34109">
        <ele>45.400001525879</ele>
        <time>2016-01-11T19:23:46.000Z</time>
      </trkpt>
      <trkpt lat="48.85459" lon="2.34103">
        <ele>45.799999237061</ele>
        <time>2016-01-11T19:23:47.000Z</time>
      </trkpt>
      <trkpt lat="48.85442" lon="2.34088">
        <ele>47.599998474121</ele>
        <time>2016-01-11T19:23:52.000Z</time>
      </trkpt>
      <trkpt lat="48.85431" lon="2.34072">
        <ele>47.400001525879</ele>
        <time>2016-01-11T19:23:57.000Z</time>
      </trkpt>
      <trkpt lat="48.85438" lon="2.34051">
        <ele>47.599998474121</ele>
        <time>2016-01-11T19:24:03.000Z</time>
      </trkpt>
      <trkpt lat="48.85439" lon="2.34044">
        <ele>47.599998474121</ele>
        <time>2016-01-11T19:24:04.000Z</time>
      </trkpt>
      <trkpt lat="48.85448" lon="2.34019">
        <ele>46.799999237061</ele>
        <time>2016-01-11T19:24:10.000Z</time>
      </trkpt>
      <trkpt lat="48.8546" lon="2.33996">
        <ele>47.599998474121</ele>
        <time>2016-01-11T19:24:18.000Z</time>
      </trkpt>
      <trkpt lat="48.8547" lon="2.33971">
        <ele>47.799999237061</ele>
        <time>2016-01-11T19:24:31.000Z</time>
      </trkpt>
      <trkpt lat="48.8547" lon="2.3397">
        <ele>47.799999237061</ele>
        <time>2016-01-11T19:24:32.000Z</time>
      </trkpt>
      <trkpt lat="48.85472" lon="2.33962">
        <ele>47.799999237061</ele>
        <time>2016-01-11T19:24:36.000Z</time>
      </trkpt>
      <trkpt lat="48.85473" lon="2.33959">
        <ele>47.799999237061</ele>
        <time>2016-01-11T19:24:37.000Z</time>
      </trkpt>
      <trkpt lat="48.8548" lon="2.33936">
        <ele>47.599998474121</ele>
        <time>2016-01-11T19:24:44.000Z</time>
      </trkpt>
      <trkpt lat="48.85483" lon="2.33932">
        <ele>47.400001525879</ele>
        <time>2016-01-11T19:24:47.000Z</time>
      </trkpt>
      <trkpt lat="48.85499" lon="2.33921">
        <ele>47.200000762939</ele>
        <time>2016-01-11T19:24:57.000Z</time>
      </trkpt>
      <trkpt lat="48.85512" lon="2.3393">
        <ele>47.400001525879</ele>
        <time>2016-01-11T19:25:07.000Z</time>
      </trkpt>
      <trkpt lat="48.85524" lon="2.33903">
        <ele>47</ele>
        <time>2016-01-11T19:25:13.000Z</time>
      </trkpt>
      <trkpt lat="48.85538" lon="2.33884">
        <ele>47</ele>
        <time>2016-01-11T19:25:19.000Z</time>
      </trkpt>
      <trkpt lat="48.85536" lon="2.33884">
        <ele>47</ele>
        <time>2016-01-11T19:25:20.000Z</time>
      </trkpt>
      <trkpt lat="48.85541" lon="2.33893">
        <ele>47</ele>
        <time>2016-01-11T19:25:25.000Z</time>
      </trkpt>
      <trkpt lat="48.8556" lon="2.33907">
        <ele>47</ele>
        <time>2016-01-11T19:25:36.000Z</time>
      </trkpt>
      <trkpt lat="48.8558" lon="2.33917">
        <ele>47</ele>
        <time>2016-01-11T19:25:42.000Z</time>
      </trkpt>
      <trkpt lat="48.85592" lon="2.33937">
        <ele>47.200000762939</ele>
        <time>2016-01-11T19:25:47.000Z</time>
      </trkpt>
      <trkpt lat="48.856" lon="2.33964">
        <ele>47.599998474121</ele>
        <time>2016-01-11T19:25:54.000Z</time>
      </trkpt>
      <trkpt lat="48.85606" lon="2.33994">
        <ele>48</ele>
        <time>2016-01-11T19:26:03.000Z</time>
      </trkpt>
      <trkpt lat="48.85608" lon="2.34007">
        <ele>47.400001525879</ele>
        <time>2016-01-11T19:26:07.000Z</time>
      </trkpt>
      <trkpt lat="48.85612" lon="2.34008">
        <ele>47</ele>
        <time>2016-01-11T19:26:13.000Z</time>
      </trkpt>
      <trkpt lat="48.85627" lon="2.33991">
        <ele>44.200000762939</ele>
        <time>2016-01-11T19:26:20.000Z</time>
      </trkpt>
      <trkpt lat="48.8563" lon="2.33988">
        <ele>43.599998474121</ele>
        <time>2016-01-11T19:26:21.000Z</time>
      </trkpt>
      <trkpt lat="48.85628" lon="2.33959">
        <ele>43.599998474121</ele>
        <time>2016-01-11T19:26:27.000Z</time>
      </trkpt>
      <trkpt lat="48.85613" lon="2.33938">
        <ele>46</ele>
        <time>2016-01-11T19:26:33.000Z</time>
      </trkpt>
      <trkpt lat="48.85598" lon="2.33915">
        <ele>47</ele>
        <time>2016-01-11T19:26:38.000Z</time>
      </trkpt>
      <trkpt lat="48.85585" lon="2.3389">
        <ele>46.799999237061</ele>
        <time>2016-01-11T19:26:42.000Z</time>
      </trkpt>
      <trkpt lat="48.85572" lon="2.33866">
        <ele>46.200000762939</ele>
        <time>2016-01-11T19:26:46.000Z</time>
      </trkpt>
      <trkpt lat="48.85558" lon="2.33844">
        <ele>45.599998474121</ele>
        <time>2016-01-11T19:26:50.000Z</time>
      </trkpt>
      <trkpt lat="48.85544" lon="2.33825">
        <ele>45.599998474121</ele>
        <time>2016-01-11T19:26:54.000Z</time>
      </trkpt>
      <trkpt lat="48.85535" lon="2.338">
        <ele>46</ele>
        <time>2016-01-11T19:26:58.000Z</time>
      </trkpt>
      <trkpt lat="48.85525" lon="2.33772">
        <ele>46.200000762939</ele>
        <time>2016-01-11T19:27:03.000Z</time>
      </trkpt>
      <trkpt lat="48.85529" lon="2.33744">
        <ele>46</ele>
        <time>2016-01-11T19:27:08.000Z</time>
      </trkpt>
      <trkpt lat="48.85533" lon="2.33714">
        <ele>46.400001525879</ele>
        <time>2016-01-11T19:27:14.000Z</time>
      </trkpt>
      <trkpt lat="48.85524" lon="2.33691">
        <ele>46.599998474121</ele>
        <time>2016-01-11T19:27:21.000Z</time>
      </trkpt>
      <trkpt lat="48.85504" lon="2.33693">
        <ele>47.200000762939</ele>
        <time>2016-01-11T19:27:27.000Z</time>
      </trkpt>
      <trkpt lat="48.85486" lon="2.33677">
        <ele>47.799999237061</ele>
        <time>2016-01-11T19:27:34.000Z</time>
      </trkpt>
      <trkpt lat="48.85481" lon="2.33666">
        <ele>48</ele>
        <time>2016-01-11T19:27:36.000Z</time>
      </trkpt>
      <trkpt lat="48.85464" lon="2.33647">
        <ele>47.799999237061</ele>
        <time>2016-01-11T19:27:42.000Z</time>
      </trkpt>
      <trkpt lat="48.85456" lon="2.33641">
        <ele>47.799999237061</ele>
        <time>2016-01-11T19:27:44.000Z</time>
      </trkpt>
      <trkpt lat="48.85438" lon="2.3364">
        <ele>48.200000762939</ele>
        <time>2016-01-11T19:27:49.000Z</time>
      </trkpt>
      <trkpt lat="48.85419" lon="2.33636">
        <ele>49.400001525879</ele>
        <time>2016-01-11T19:27:55.000Z</time>
      </trkpt>
      <trkpt lat="48.85403" lon="2.33624">
        <ele>50.200000762939</ele>
        <time>2016-01-11T19:28:03.000Z</time>
      </trkpt>
      <trkpt lat="48.85406" lon="2.33591">
        <ele>48.799999237061</ele>
        <time>2016-01-11T19:28:07.000Z</time>
      </trkpt>
      <trkpt lat="48.85408" lon="2.33565">
        <ele>47.799999237061</ele>
        <time>2016-01-11T19:28:11.000Z</time>
      </trkpt>
      <trkpt lat="48.8541" lon="2.3353">
        <ele>47.400001525879</ele>
        <time>2016-01-11T19:28:17.000Z</time>
      </trkpt>
      <trkpt lat="48.85414" lon="2.33501">
        <ele>47.200000762939</ele>
        <time>2016-01-11T19:28:21.000Z</time>
      </trkpt>
      <trkpt lat="48.85423" lon="2.33473">
        <ele>45.799999237061</ele>
        <time>2016-01-11T19:28:25.000Z</time>
      </trkpt>
      <trkpt lat="48.85431" lon="2.33443">
        <ele>44.799999237061</ele>
        <time>2016-01-11T19:28:30.000Z</time>
      </trkpt>
      <trkpt lat="48.8544" lon="2.33416">
        <ele>44</ele>
        <time>2016-01-11T19:28:36.000Z</time>
      </trkpt>
      <trkpt lat="48.85444" lon="2.33385">
        <ele>44.799999237061</ele>
        <time>2016-01-11T19:28:42.000Z</time>
      </trkpt>
      <trkpt lat="48.85448" lon="2.33358">
        <ele>45.400001525879</ele>
        <time>2016-01-11T19:28:48.000Z</time>
      </trkpt>
      <trkpt lat="48.85458" lon="2.33334">
        <ele>45.799999237061</ele>
        <time>2016-01-11T19:28:57.000Z</time>
      </trkpt>
      <trkpt lat="48.85458" lon="2.33333">
        <ele>45.799999237061</ele>
        <time>2016-01-11T19:28:59.000Z</time>
      </trkpt>
      <trkpt lat="48.85464" lon="2.33322">
        <ele>46.200000762939</ele>
        <time>2016-01-11T19:29:04.000Z</time>
      </trkpt>
      <trkpt lat="48.85486" lon="2.33319">
        <ele>46</ele>
        <time>2016-01-11T19:29:11.000Z</time>
      </trkpt>
      <trkpt lat="48.85505" lon="2.33328">
        <ele>45.400001525879</ele>
        <time>2016-01-11T19:29:17.000Z</time>
      </trkpt>
      <trkpt lat="48.85523" lon="2.33331">
        <ele>45</ele>
        <time>2016-01-11T19:29:23.000Z</time>
      </trkpt>
      <trkpt lat="48.8554" lon="2.33343">
        <ele>45.200000762939</ele>
        <time>2016-01-11T19:29:29.000Z</time>
      </trkpt>
      <trkpt lat="48.85558" lon="2.33351">
        <ele>45.200000762939</ele>
        <time>2016-01-11T19:29:38.000Z</time>
      </trkpt>
      <trkpt lat="48.8556" lon="2.33349">
        <ele>45.200000762939</ele>
        <time>2016-01-11T19:29:40.000Z</time>
      </trkpt>
      <trkpt lat="48.85572" lon="2.33326">
        <ele>45.200000762939</ele>
        <time>2016-01-11T19:29:47.000Z</time>
      </trkpt>
      <trkpt lat="48.85581" lon="2.33299">
        <ele>46.799999237061</ele>
        <time>2016-01-11T19:29:52.000Z</time>
      </trkpt>
      <trkpt lat="48.85588" lon="2.3327">
        <ele>47.599998474121</ele>
        <time>2016-01-11T19:29:57.000Z</time>
      </trkpt>
      <trkpt lat="48.85598" lon="2.33245">
        <ele>48.400001525879</ele>
        <time>2016-01-11T19:30:01.000Z</time>
      </trkpt>
      <trkpt lat="48.8561" lon="2.33218">
        <ele>49</ele>
        <time>2016-01-11T19:30:06.000Z</time>
      </trkpt>
      <trkpt lat="48.85619" lon="2.33194">
        <ele>49.799999237061</ele>
        <time>2016-01-11T19:30:12.000Z</time>
      </trkpt>
      <trkpt lat="48.85623" lon="2.33185">
        <ele>50</ele>
        <time>2016-01-11T19:30:18.000Z</time>
      </trkpt>
      <trkpt lat="48.85623" lon="2.3318">
        <ele>50.200000762939</ele>
        <time>2016-01-11T19:30:25.000Z</time>
      </trkpt>
      <trkpt lat="48.85635" lon="2.33158">
        <ele>48.599998474121</ele>
        <time>2016-01-11T19:30:42.000Z</time>
      </trkpt>
      <trkpt lat="48.85644" lon="2.3313">
        <ele>46.599998474121</ele>
        <time>2016-01-11T19:30:50.000Z</time>
      </trkpt>
      <trkpt lat="48.8565" lon="2.33102">
        <ele>45.599998474121</ele>
        <time>2016-01-11T19:30:57.000Z</time>
      </trkpt>
      <trkpt lat="48.85662" lon="2.33078">
        <ele>45</ele>
        <time>2016-01-11T19:31:04.000Z</time>
      </trkpt>
      <trkpt lat="48.85672" lon="2.33056">
        <ele>44.599998474121</ele>
        <time>2016-01-11T19:31:11.000Z</time>
      </trkpt>
      <trkpt lat="48.85683" lon="2.33031">
        <ele>44.200000762939</ele>
        <time>2016-01-11T19:31:17.000Z</time>
      </trkpt>
      <trkpt lat="48.85691" lon="2.33002">
        <ele>44</ele>
        <time>2016-01-11T19:31:22.000Z</time>
      </trkpt>
      <trkpt lat="48.85699" lon="2.32977">
        <ele>43.799999237061</ele>
        <time>2016-01-11T19:31:26.000Z</time>
      </trkpt>
      <trkpt lat="48.85709" lon="2.32953">
        <ele>43.400001525879</ele>
        <time>2016-01-11T19:31:30.000Z</time>
      </trkpt>
      <trkpt lat="48.85717" lon="2.32926">
        <ele>43.200000762939</ele>
        <time>2016-01-11T19:31:35.000Z</time>
      </trkpt>
      <trkpt lat="48.85728" lon="2.32898">
        <ele>44.200000762939</ele>
        <time>2016-01-11T19:31:43.000Z</time>
      </trkpt>
      <trkpt lat="48.85738" lon="2.3287">
        <ele>45.400001525879</ele>
        <time>2016-01-11T19:31:48.000Z</time>
      </trkpt>
      <trkpt lat="48.85747" lon="2.32844">
        <ele>45.400001525879</ele>
        <time>2016-01-11T19:31:53.000Z</time>
      </trkpt>
      <trkpt lat="48.85757" lon="2.32824">
        <ele>45.200000762939</ele>
        <time>2016-01-11T19:31:59.000Z</time>
      </trkpt>
      <trkpt lat="48.85766" lon="2.32803">
        <ele>45</ele>
        <time>2016-01-11T19:32:11.000Z</time>
      </trkpt>
      <trkpt lat="48.85778" lon="2.3278">
        <ele>45</ele>
        <time>2016-01-11T19:32:18.000Z</time>
      </trkpt>
      <trkpt lat="48.85785" lon="2.32752">
        <ele>45.200000762939</ele>
        <time>2016-01-11T19:32:23.000Z</time>
      </trkpt>
      <trkpt lat="48.85794" lon="2.32724">
        <ele>45.200000762939</ele>
        <time>2016-01-11T19:32:28.000Z</time>
      </trkpt>
      <trkpt lat="48.85801" lon="2.32698">
        <ele>44.799999237061</ele>
        <time>2016-01-11T19:32:32.000Z</time>
      </trkpt>
      <trkpt lat="48.85813" lon="2.32669">
        <ele>44.200000762939</ele>
        <time>2016-01-11T19:32:37.000Z</time>
      </trkpt>
      <trkpt lat="48.85822" lon="2.32637">
        <ele>43</ele>
        <time>2016-01-11T19:32:42.000Z</time>
      </trkpt>
      <trkpt lat="48.85831" lon="2.32609">
        <ele>41.799999237061</ele>
        <time>2016-01-11T19:32:46.000Z</time>
      </trkpt>
      <trkpt lat="48.85843" lon="2.32582">
        <ele>40.799999237061</ele>
        <time>2016-01-11T19:32:51.000Z</time>
      </trkpt>
      <trkpt lat="48.85848" lon="2.32571">
        <ele>41</ele>
        <time>2016-01-11T19:32:53.000Z</time>
      </trkpt>
      <trkpt lat="48.85858" lon="2.32543">
        <ele>42</ele>
        <time>2016-01-11T19:32:58.000Z</time>
      </trkpt>
      <trkpt lat="48.85864" lon="2.32527">
        <ele>42.400001525879</ele>
        <time>2016-01-11T19:33:01.000Z</time>
      </trkpt>
      <trkpt lat="48.85872" lon="2.32506">
        <ele>43</ele>
        <time>2016-01-11T19:33:05.000Z</time>
      </trkpt>
      <trkpt lat="48.85877" lon="2.32494">
        <ele>42.799999237061</ele>
        <time>2016-01-11T19:33:08.000Z</time>
      </trkpt>
      <trkpt lat="48.85888" lon="2.32465">
        <ele>43.799999237061</ele>
        <time>2016-01-11T19:33:13.000Z</time>
      </trkpt>
      <trkpt lat="48.85898" lon="2.32435">
        <ele>44</ele>
        <time>2016-01-11T19:33:18.000Z</time>
      </trkpt>
      <trkpt lat="48.85909" lon="2.32409">
        <ele>43.400001525879</ele>
        <time>2016-01-11T19:33:22.000Z</time>
      </trkpt>
      <trkpt lat="48.85918" lon="2.32384">
        <ele>43</ele>
        <time>2016-01-11T19:33:26.000Z</time>
      </trkpt>
      <trkpt lat="48.85926" lon="2.32367">
        <ele>43.599998474121</ele>
        <time>2016-01-11T19:33:30.000Z</time>
      </trkpt>
      <trkpt lat="48.85934" lon="2.32341">
        <ele>44.599998474121</ele>
        <time>2016-01-11T19:33:36.000Z</time>
      </trkpt>
      <trkpt lat="48.85938" lon="2.32313">
        <ele>44.599998474121</ele>
        <time>2016-01-11T19:33:42.000Z</time>
      </trkpt>
      <trkpt lat="48.85941" lon="2.32309">
        <ele>44.400001525879</ele>
        <time>2016-01-11T19:33:43.000Z</time>
      </trkpt>
      <trkpt lat="48.85948" lon="2.32293">
        <ele>44.200000762939</ele>
        <time>2016-01-11T19:33:47.000Z</time>
      </trkpt>
      <trkpt lat="48.85956" lon="2.32268">
        <ele>43.400001525879</ele>
        <time>2016-01-11T19:33:53.000Z</time>
      </trkpt>
      <trkpt lat="48.85966" lon="2.3224">
        <ele>41.799999237061</ele>
        <time>2016-01-11T19:33:59.000Z</time>
      </trkpt>
      <trkpt lat="48.85978" lon="2.32215">
        <ele>39.400001525879</ele>
        <time>2016-01-11T19:34:04.000Z</time>
      </trkpt>
    </trkseg>
  </trk>
</gpx>